sensor_id;sensor_type;location;lat;lon;timestamp;temperature;humidity
41481;DHT22;27217;51.220;5.308;2022-11-14T00:00:27;6.80;99.90
41481;DHT22;27217;51.220;5.308;2022-11-14T00:02:53;6.70;99.90
41481;DHT22;27217;51.220;5.308;2022-11-14T00:05:20;6.60;99.90
41481;DHT22;27217;51.220;5.308;2022-11-14T00:07:46;6.60;99.90
41481;DHT22;27217;51.220;5.308;2022-11-14T00:10:15;6.50;99.90
41481;DHT22;27217;51.220;5.308;2022-11-14T00:12:41;6.50;99.90
41481;DHT22;27217;51.220;5.308;2022-11-14T00:15:07;6.40;99.90
41481;DHT22;27217;51.220;5.308;2022-11-14T00:17:33;6.40;99.90
41481;DHT22;27217;51.220;5.308;2022-11-14T00:19:59;6.40;99.90
41481;DHT22;27217;51.220;5.308;2022-11-14T00:22:25;6.20;99.90
41481;DHT22;27217;51.220;5.308;2022-11-14T00:24:50;6.20;99.90
41481;DHT22;27217;51.220;5.308;2022-11-14T00:27:16;6.10;99.90
41481;DHT22;27217;51.220;5.308;2022-11-14T00:29:43;6.10;99.90
41481;DHT22;27217;51.220;5.308;2022-11-14T00:32:08;6.20;99.90
41481;DHT22;27217;51.220;5.308;2022-11-14T00:34:34;6.10;99.90
41481;DHT22;27217;51.220;5.308;2022-11-14T00:37:00;5.90;99.90
41481;DHT22;27217;51.220;5.308;2022-11-14T00:39:26;5.90;99.90
41481;DHT22;27217;51.220;5.308;2022-11-14T00:41:53;5.90;99.90
41481;DHT22;27217;51.220;5.308;2022-11-14T00:44:19;5.90;99.90
41481;DHT22;27217;51.220;5.308;2022-11-14T00:46:44;5.90;99.90
41481;DHT22;27217;51.220;5.308;2022-11-14T00:49:10;5.80;99.90
41481;DHT22;27217;51.220;5.308;2022-11-14T00:51:36;5.80;99.90
41481;DHT22;27217;51.220;5.308;2022-11-14T00:54:03;5.60;99.90
41481;DHT22;27217;51.220;5.308;2022-11-14T00:56:28;5.50;99.90
41481;DHT22;27217;51.220;5.308;2022-11-14T00:58:54;5.40;99.90
41481;DHT22;27217;51.220;5.308;2022-11-14T01:01:21;5.20;99.90
41481;DHT22;27217;51.220;5.308;2022-11-14T01:03:47;5.40;99.90
41481;DHT22;27217;51.220;5.308;2022-11-14T01:06:13;5.40;99.90
41481;DHT22;27217;51.220;5.308;2022-11-14T01:08:41;5.40;99.90
41481;DHT22;27217;51.220;5.308;2022-11-14T01:11:14;5.30;99.90
41481;DHT22;27217;51.220;5.308;2022-11-14T01:13:40;5.50;99.90
41481;DHT22;27217;51.220;5.308;2022-11-14T01:16:06;5.40;99.90
41481;DHT22;27217;51.220;5.308;2022-11-14T01:18:33;5.40;99.90
41481;DHT22;27217;51.220;5.308;2022-11-14T01:20:59;5.40;99.90
41481;DHT22;27217;51.220;5.308;2022-11-14T01:23:25;5.50;99.90
41481;DHT22;27217;51.220;5.308;2022-11-14T01:25:51;5.30;99.90
41481;DHT22;27217;51.220;5.308;2022-11-14T01:28:18;5.30;99.90
41481;DHT22;27217;51.220;5.308;2022-11-14T01:30:45;5.10;99.90
41481;DHT22;27217;51.220;5.308;2022-11-14T01:33:11;5.20;99.90
41481;DHT22;27217;51.220;5.308;2022-11-14T01:35:37;5.00;99.90
41481;DHT22;27217;51.220;5.308;2022-11-14T01:38:04;5.10;99.90
41481;DHT22;27217;51.220;5.308;2022-11-14T01:40:31;5.00;99.90
41481;DHT22;27217;51.220;5.308;2022-11-14T01:51:16;4.70;99.90
41481;DHT22;27217;51.220;5.308;2022-11-14T01:53:45;4.60;99.90
41481;DHT22;27217;51.220;5.308;2022-11-14T01:56:15;4.50;99.90
41481;DHT22;27217;51.220;5.308;2022-11-14T01:58:45;4.50;99.90
41481;DHT22;27217;51.220;5.308;2022-11-14T02:01:13;4.50;99.90
41481;DHT22;27217;51.220;5.308;2022-11-14T02:03:41;4.40;99.90
41481;DHT22;27217;51.220;5.308;2022-11-14T02:06:11;4.50;99.90
41481;DHT22;27217;51.220;5.308;2022-11-14T02:08:38;4.50;99.90
41481;DHT22;27217;51.220;5.308;2022-11-14T02:11:04;4.40;99.90
41481;DHT22;27217;51.220;5.308;2022-11-14T02:13:30;4.20;99.90
41481;DHT22;27217;51.220;5.308;2022-11-14T02:15:56;4.20;99.90
41481;DHT22;27217;51.220;5.308;2022-11-14T02:18:22;4.30;99.90
41481;DHT22;27217;51.220;5.308;2022-11-14T02:20:49;4.20;99.90
41481;DHT22;27217;51.220;5.308;2022-11-14T02:23:27;4.40;99.90
41481;DHT22;27217;51.220;5.308;2022-11-14T02:25:54;4.30;99.90
41481;DHT22;27217;51.220;5.308;2022-11-14T02:28:20;4.30;99.90
41481;DHT22;27217;51.220;5.308;2022-11-14T02:30:46;4.30;99.90
41481;DHT22;27217;51.220;5.308;2022-11-14T02:33:15;4.30;99.90
41481;DHT22;27217;51.220;5.308;2022-11-14T02:35:41;4.10;99.90
41481;DHT22;27217;51.220;5.308;2022-11-14T02:38:07;4.10;99.90
41481;DHT22;27217;51.220;5.308;2022-11-14T02:40:33;4.10;99.90
41481;DHT22;27217;51.220;5.308;2022-11-14T02:42:59;4.00;99.90
41481;DHT22;27217;51.220;5.308;2022-11-14T02:45:25;3.80;99.90
41481;DHT22;27217;51.220;5.308;2022-11-14T02:47:51;3.90;99.90
41481;DHT22;27217;51.220;5.308;2022-11-14T02:50:17;3.80;99.90
41481;DHT22;27217;51.220;5.308;2022-11-14T02:52:43;3.80;99.90
41481;DHT22;27217;51.220;5.308;2022-11-14T02:55:10;3.80;99.90
41481;DHT22;27217;51.220;5.308;2022-11-14T02:57:36;3.80;99.90
41481;DHT22;27217;51.220;5.308;2022-11-14T03:00:03;3.80;99.90
41481;DHT22;27217;51.220;5.308;2022-11-14T03:02:28;3.80;99.90
41481;DHT22;27217;51.220;5.308;2022-11-14T03:04:55;3.80;99.90
41481;DHT22;27217;51.220;5.308;2022-11-14T03:07:21;3.80;99.90
41481;DHT22;27217;51.220;5.308;2022-11-14T03:09:47;3.90;99.90
41481;DHT22;27217;51.220;5.308;2022-11-14T03:12:17;3.80;99.90
41481;DHT22;27217;51.220;5.308;2022-11-14T03:14:44;3.60;99.90
41481;DHT22;27217;51.220;5.308;2022-11-14T03:17:09;3.40;99.90
41481;DHT22;27217;51.220;5.308;2022-11-14T03:19:36;3.50;99.90
41481;DHT22;27217;51.220;5.308;2022-11-14T03:22:01;3.60;99.90
41481;DHT22;27217;51.220;5.308;2022-11-14T03:24:28;3.80;99.90
41481;DHT22;27217;51.220;5.308;2022-11-14T03:26:54;3.90;99.90
41481;DHT22;27217;51.220;5.308;2022-11-14T03:29:19;4.00;99.90
41481;DHT22;27217;51.220;5.308;2022-11-14T03:31:46;3.80;99.90
41481;DHT22;27217;51.220;5.308;2022-11-14T03:34:11;3.90;99.90
41481;DHT22;27217;51.220;5.308;2022-11-14T03:36:38;3.90;99.90
41481;DHT22;27217;51.220;5.308;2022-11-14T03:39:04;3.90;99.90
41481;DHT22;27217;51.220;5.308;2022-11-14T03:41:30;3.80;99.90
41481;DHT22;27217;51.220;5.308;2022-11-14T03:43:56;4.00;99.90
41481;DHT22;27217;51.220;5.308;2022-11-14T03:46:22;4.00;99.90
41481;DHT22;27217;51.220;5.308;2022-11-14T03:48:49;3.90;99.90
41481;DHT22;27217;51.220;5.308;2022-11-14T03:51:15;3.80;99.90
41481;DHT22;27217;51.220;5.308;2022-11-14T03:53:41;3.80;99.90
41481;DHT22;27217;51.220;5.308;2022-11-14T03:56:06;3.90;99.90
41481;DHT22;27217;51.220;5.308;2022-11-14T03:58:32;4.00;99.90
41481;DHT22;27217;51.220;5.308;2022-11-14T04:00:58;3.90;99.90
41481;DHT22;27217;51.220;5.308;2022-11-14T04:03:24;4.00;99.90
41481;DHT22;27217;51.220;5.308;2022-11-14T04:05:51;4.00;99.90
41481;DHT22;27217;51.220;5.308;2022-11-14T04:08:17;3.90;99.90
41481;DHT22;27217;51.220;5.308;2022-11-14T04:10:46;3.90;99.90
41481;DHT22;27217;51.220;5.308;2022-11-14T04:13:13;3.80;99.90
41481;DHT22;27217;51.220;5.308;2022-11-14T04:15:38;3.80;99.90
41481;DHT22;27217;51.220;5.308;2022-11-14T04:18:04;3.70;99.90
41481;DHT22;27217;51.220;5.308;2022-11-14T04:20:30;3.70;99.90
41481;DHT22;27217;51.220;5.308;2022-11-14T04:22:56;3.60;99.90
41481;DHT22;27217;51.220;5.308;2022-11-14T04:25:22;3.60;99.90
41481;DHT22;27217;51.220;5.308;2022-11-14T04:27:48;3.60;99.90
41481;DHT22;27217;51.220;5.308;2022-11-14T04:30:13;3.70;99.90
41481;DHT22;27217;51.220;5.308;2022-11-14T04:32:39;3.60;99.90
41481;DHT22;27217;51.220;5.308;2022-11-14T04:35:08;3.70;99.90
41481;DHT22;27217;51.220;5.308;2022-11-14T04:37:35;3.60;99.90
41481;DHT22;27217;51.220;5.308;2022-11-14T04:40:03;3.60;99.90
41481;DHT22;27217;51.220;5.308;2022-11-14T04:42:29;3.70;99.90
41481;DHT22;27217;51.220;5.308;2022-11-14T04:44:55;3.70;99.90
41481;DHT22;27217;51.220;5.308;2022-11-14T04:47:21;3.60;99.90
41481;DHT22;27217;51.220;5.308;2022-11-14T04:49:47;3.60;99.90
41481;DHT22;27217;51.220;5.308;2022-11-14T04:52:13;3.50;99.90
41481;DHT22;27217;51.220;5.308;2022-11-14T04:54:38;3.40;99.90
41481;DHT22;27217;51.220;5.308;2022-11-14T04:57:05;3.40;99.90
41481;DHT22;27217;51.220;5.308;2022-11-14T04:59:31;3.50;99.90
41481;DHT22;27217;51.220;5.308;2022-11-14T05:01:56;3.40;99.90
41481;DHT22;27217;51.220;5.308;2022-11-14T05:04:22;3.30;99.90
41481;DHT22;27217;51.220;5.308;2022-11-14T05:06:48;3.40;99.90
41481;DHT22;27217;51.220;5.308;2022-11-14T05:09:14;3.30;99.90
41481;DHT22;27217;51.220;5.308;2022-11-14T05:11:40;3.20;99.90
41481;DHT22;27217;51.220;5.308;2022-11-14T05:14:06;3.20;99.90
41481;DHT22;27217;51.220;5.308;2022-11-14T05:16:32;3.20;99.90
41481;DHT22;27217;51.220;5.308;2022-11-14T05:18:58;3.10;99.90
41481;DHT22;27217;51.220;5.308;2022-11-14T05:21:24;3.30;99.90
41481;DHT22;27217;51.220;5.308;2022-11-14T05:23:49;3.30;99.90
41481;DHT22;27217;51.220;5.308;2022-11-14T05:26:17;3.30;99.90
41481;DHT22;27217;51.220;5.308;2022-11-14T05:28:43;3.40;99.90
41481;DHT22;27217;51.220;5.308;2022-11-14T05:31:11;3.20;99.90
41481;DHT22;27217;51.220;5.308;2022-11-14T05:33:38;3.30;99.90
41481;DHT22;27217;51.220;5.308;2022-11-14T05:36:08;3.40;99.90
41481;DHT22;27217;51.220;5.308;2022-11-14T05:38:35;3.40;99.90
41481;DHT22;27217;51.220;5.308;2022-11-14T05:41:11;3.40;99.90
41481;DHT22;27217;51.220;5.308;2022-11-14T05:43:37;3.30;99.90
41481;DHT22;27217;51.220;5.308;2022-11-14T05:46:05;3.30;99.90
41481;DHT22;27217;51.220;5.308;2022-11-14T05:48:32;3.30;99.90
41481;DHT22;27217;51.220;5.308;2022-11-14T05:51:00;3.30;99.90
41481;DHT22;27217;51.220;5.308;2022-11-14T05:53:27;3.20;99.90
41481;DHT22;27217;51.220;5.308;2022-11-14T05:55:53;3.20;99.90
41481;DHT22;27217;51.220;5.308;2022-11-14T05:58:20;3.30;99.90
41481;DHT22;27217;51.220;5.308;2022-11-14T06:00:47;3.20;99.90
41481;DHT22;27217;51.220;5.308;2022-11-14T06:03:13;3.10;99.90
41481;DHT22;27217;51.220;5.308;2022-11-14T06:05:42;3.00;99.90
41481;DHT22;27217;51.220;5.308;2022-11-14T06:08:07;3.10;99.90
41481;DHT22;27217;51.220;5.308;2022-11-14T06:10:34;3.20;99.90
41481;DHT22;27217;51.220;5.308;2022-11-14T06:13:00;3.20;99.90
41481;DHT22;27217;51.220;5.308;2022-11-14T06:15:26;3.20;99.90
41481;DHT22;27217;51.220;5.308;2022-11-14T06:17:52;3.20;99.90
41481;DHT22;27217;51.220;5.308;2022-11-14T06:20:19;3.20;99.90
41481;DHT22;27217;51.220;5.308;2022-11-14T06:22:45;3.20;99.90
41481;DHT22;27217;51.220;5.308;2022-11-14T06:25:11;3.20;99.90
41481;DHT22;27217;51.220;5.308;2022-11-14T06:27:37;3.10;99.90
41481;DHT22;27217;51.220;5.308;2022-11-14T06:30:03;3.20;99.90
41481;DHT22;27217;51.220;5.308;2022-11-14T06:32:28;3.10;99.90
41481;DHT22;27217;51.220;5.308;2022-11-14T06:34:54;3.10;99.90
41481;DHT22;27217;51.220;5.308;2022-11-14T06:37:21;2.80;99.90
41481;DHT22;27217;51.220;5.308;2022-11-14T06:39:46;2.80;99.90
41481;DHT22;27217;51.220;5.308;2022-11-14T06:42:12;2.70;99.90
41481;DHT22;27217;51.220;5.308;2022-11-14T06:44:40;2.80;99.90
41481;DHT22;27217;51.220;5.308;2022-11-14T06:47:09;2.80;99.90
41481;DHT22;27217;51.220;5.308;2022-11-14T06:49:35;2.90;99.90
41481;DHT22;27217;51.220;5.308;2022-11-14T06:52:00;2.80;99.90
41481;DHT22;27217;51.220;5.308;2022-11-14T06:54:26;2.90;99.90
41481;DHT22;27217;51.220;5.308;2022-11-14T06:56:52;2.90;99.90
41481;DHT22;27217;51.220;5.308;2022-11-14T06:59:18;3.00;99.90
41481;DHT22;27217;51.220;5.308;2022-11-14T07:01:44;3.00;99.90
41481;DHT22;27217;51.220;5.308;2022-11-14T07:04:09;2.90;99.90
41481;DHT22;27217;51.220;5.308;2022-11-14T07:06:35;3.00;99.90
41481;DHT22;27217;51.220;5.308;2022-11-14T07:09:01;2.90;99.90
41481;DHT22;27217;51.220;5.308;2022-11-14T07:11:27;3.00;99.90
41481;DHT22;27217;51.220;5.308;2022-11-14T07:13:59;3.00;99.90
41481;DHT22;27217;51.220;5.308;2022-11-14T07:16:30;3.00;99.90
41481;DHT22;27217;51.220;5.308;2022-11-14T07:18:57;3.00;99.90
41481;DHT22;27217;51.220;5.308;2022-11-14T07:21:24;3.10;99.90
41481;DHT22;27217;51.220;5.308;2022-11-14T07:23:50;3.20;99.90
41481;DHT22;27217;51.220;5.308;2022-11-14T07:26:16;3.40;99.90
41481;DHT22;27217;51.220;5.308;2022-11-14T07:28:43;3.20;99.90
41481;DHT22;27217;51.220;5.308;2022-11-14T07:31:13;3.40;99.90
41481;DHT22;27217;51.220;5.308;2022-11-14T07:33:40;3.30;99.90
41481;DHT22;27217;51.220;5.308;2022-11-14T07:36:07;3.30;99.90
41481;DHT22;27217;51.220;5.308;2022-11-14T07:38:34;3.30;99.90
41481;DHT22;27217;51.220;5.308;2022-11-14T07:41:19;3.40;99.90
41481;DHT22;27217;51.220;5.308;2022-11-14T07:43:45;3.40;99.90
41481;DHT22;27217;51.220;5.308;2022-11-14T07:46:13;3.50;99.90
41481;DHT22;27217;51.220;5.308;2022-11-14T07:48:39;3.50;99.90
41481;DHT22;27217;51.220;5.308;2022-11-14T07:51:06;3.60;99.90
41481;DHT22;27217;51.220;5.308;2022-11-14T07:53:33;3.70;99.90
41481;DHT22;27217;51.220;5.308;2022-11-14T07:56:07;3.70;99.90
41481;DHT22;27217;51.220;5.308;2022-11-14T07:58:37;3.70;99.90
41481;DHT22;27217;51.220;5.308;2022-11-14T08:01:05;3.80;99.90
41481;DHT22;27217;51.220;5.308;2022-11-14T08:03:31;3.80;99.90
41481;DHT22;27217;51.220;5.308;2022-11-14T08:06:06;3.90;99.90
41481;DHT22;27217;51.220;5.308;2022-11-14T08:08:33;3.90;99.90
41481;DHT22;27217;51.220;5.308;2022-11-14T08:10:59;4.00;99.90
41481;DHT22;27217;51.220;5.308;2022-11-14T08:13:26;4.10;99.90
41481;DHT22;27217;51.220;5.308;2022-11-14T08:15:52;4.20;99.90
41481;DHT22;27217;51.220;5.308;2022-11-14T08:18:18;4.20;99.90
41481;DHT22;27217;51.220;5.308;2022-11-14T08:20:43;4.40;99.90
41481;DHT22;27217;51.220;5.308;2022-11-14T08:23:10;4.50;99.90
41481;DHT22;27217;51.220;5.308;2022-11-14T08:25:36;4.70;99.90
41481;DHT22;27217;51.220;5.308;2022-11-14T08:28:01;4.70;99.90
41481;DHT22;27217;51.220;5.308;2022-11-14T08:30:27;4.60;99.90
41481;DHT22;27217;51.220;5.308;2022-11-14T08:32:53;4.60;99.90
41481;DHT22;27217;51.220;5.308;2022-11-14T08:35:20;4.70;99.90
41481;DHT22;27217;51.220;5.308;2022-11-14T08:37:46;4.80;99.90
41481;DHT22;27217;51.220;5.308;2022-11-14T08:40:12;5.00;99.90
41481;DHT22;27217;51.220;5.308;2022-11-14T08:42:38;5.10;99.90
41481;DHT22;27217;51.220;5.308;2022-11-14T08:45:04;5.10;99.90
41481;DHT22;27217;51.220;5.308;2022-11-14T08:47:30;5.30;99.90
41481;DHT22;27217;51.220;5.308;2022-11-14T08:49:56;5.40;99.90
41481;DHT22;27217;51.220;5.308;2022-11-14T08:52:23;5.50;99.90
41481;DHT22;27217;51.220;5.308;2022-11-14T08:54:48;5.70;99.90
41481;DHT22;27217;51.220;5.308;2022-11-14T08:57:14;5.80;99.90
41481;DHT22;27217;51.220;5.308;2022-11-14T08:59:40;6.00;99.90
41481;DHT22;27217;51.220;5.308;2022-11-14T09:02:09;6.00;99.90
41481;DHT22;27217;51.220;5.308;2022-11-14T09:04:36;6.10;99.90
41481;DHT22;27217;51.220;5.308;2022-11-14T09:07:01;6.10;99.90
41481;DHT22;27217;51.220;5.308;2022-11-14T09:09:27;6.20;99.90
41481;DHT22;27217;51.220;5.308;2022-11-14T09:11:53;6.30;99.90
41481;DHT22;27217;51.220;5.308;2022-11-14T09:14:19;6.50;99.90
41481;DHT22;27217;51.220;5.308;2022-11-14T09:16:46;6.60;99.90
41481;DHT22;27217;51.220;5.308;2022-11-14T09:19:15;6.60;99.90
41481;DHT22;27217;51.220;5.308;2022-11-14T09:21:41;6.60;99.90
41481;DHT22;27217;51.220;5.308;2022-11-14T09:24:07;6.90;99.90
41481;DHT22;27217;51.220;5.308;2022-11-14T09:26:33;6.90;99.90
41481;DHT22;27217;51.220;5.308;2022-11-14T09:29:00;7.10;99.90
41481;DHT22;27217;51.220;5.308;2022-11-14T09:31:26;7.40;99.90
41481;DHT22;27217;51.220;5.308;2022-11-14T09:33:52;7.40;99.90
41481;DHT22;27217;51.220;5.308;2022-11-14T09:36:18;7.60;99.90
41481;DHT22;27217;51.220;5.308;2022-11-14T09:38:44;7.60;99.90
41481;DHT22;27217;51.220;5.308;2022-11-14T09:45:00;7.80;99.90
41481;DHT22;27217;51.220;5.308;2022-11-14T09:47:32;8.10;99.90
41481;DHT22;27217;51.220;5.308;2022-11-14T09:50:05;8.20;99.90
41481;DHT22;27217;51.220;5.308;2022-11-14T09:55:18;8.40;99.90
41481;DHT22;27217;51.220;5.308;2022-11-14T09:57:45;8.50;99.90
41481;DHT22;27217;51.220;5.308;2022-11-14T10:07:55;8.90;99.90
41481;DHT22;27217;51.220;5.308;2022-11-14T10:21:33;9.80;99.90
41481;DHT22;27217;51.220;5.308;2022-11-14T10:27:02;10.60;99.90
41481;DHT22;27217;51.220;5.308;2022-11-14T10:35:01;14.30;99.90
41481;DHT22;27217;51.220;5.308;2022-11-14T10:42:43;17.50;94.00
41481;DHT22;27217;51.220;5.308;2022-11-14T10:45:16;17.90;90.40
41481;DHT22;27217;51.220;5.308;2022-11-14T10:47:52;17.40;90.10
41481;DHT22;27217;51.220;5.308;2022-11-14T10:50:24;17.30;90.10
41481;DHT22;27217;51.220;5.308;2022-11-14T10:52:56;18.00;89.20
41481;DHT22;27217;51.220;5.308;2022-11-14T10:55:23;17.60;86.60
41481;DHT22;27217;51.220;5.308;2022-11-14T10:57:49;17.80;86.70
41481;DHT22;27217;51.220;5.308;2022-11-14T11:00:20;18.10;84.10
41481;DHT22;27217;51.220;5.308;2022-11-14T11:02:55;18.20;83.80
41481;DHT22;27217;51.220;5.308;2022-11-14T11:05:24;18.40;81.30
41481;DHT22;27217;51.220;5.308;2022-11-14T11:07:51;18.40;82.40
41481;DHT22;27217;51.220;5.308;2022-11-14T11:10:41;18.20;82.60
41481;DHT22;27217;51.220;5.308;2022-11-14T11:13:32;18.20;80.50
41481;DHT22;27217;51.220;5.308;2022-11-14T11:16:00;17.80;82.50
41481;DHT22;27217;51.220;5.308;2022-11-14T11:18:32;17.40;84.40
41481;DHT22;27217;51.220;5.308;2022-11-14T11:21:13;18.20;79.70
41481;DHT22;27217;51.220;5.308;2022-11-14T11:23:56;18.00;81.40
41481;DHT22;27217;51.220;5.308;2022-11-14T11:26:30;16.70;86.40
41481;DHT22;27217;51.220;5.308;2022-11-14T11:31:54;15.70;91.00
41481;DHT22;27217;51.220;5.308;2022-11-14T11:34:27;15.70;92.30
41481;DHT22;27217;51.220;5.308;2022-11-14T11:39:49;17.90;85.20
41481;DHT22;27217;51.220;5.308;2022-11-14T11:42:23;18.10;82.10
41481;DHT22;27217;51.220;5.308;2022-11-14T11:44:55;18.10;83.60
41481;DHT22;27217;51.220;5.308;2022-11-14T11:47:24;18.40;82.50
41481;DHT22;27217;51.220;5.308;2022-11-14T11:49:52;18.50;80.10
41481;DHT22;27217;51.220;5.308;2022-11-14T11:55:13;18.60;80.70
41481;DHT22;27217;51.220;5.308;2022-11-14T11:57:53;18.40;82.40
41481;DHT22;27217;51.220;5.308;2022-11-14T12:00:21;18.90;79.10
41481;DHT22;27217;51.220;5.308;2022-11-14T12:02:49;17.80;81.70
41481;DHT22;27217;51.220;5.308;2022-11-14T12:05:56;18.30;82.90
41481;DHT22;27217;51.220;5.308;2022-11-14T12:08:47;19.40;80.20
41481;DHT22;27217;51.220;5.308;2022-11-14T12:11:18;18.30;79.60
41481;DHT22;27217;51.220;5.308;2022-11-14T12:16:50;18.90;80.60
41481;DHT22;27217;51.220;5.308;2022-11-14T12:22:01;18.20;83.90
41481;DHT22;27217;51.220;5.308;2022-11-14T12:27:48;16.40;90.30
41481;DHT22;27217;51.220;5.308;2022-11-14T12:30:20;15.20;94.70
41481;DHT22;27217;51.220;5.308;2022-11-14T12:33:03;14.30;99.90
41481;DHT22;27217;51.220;5.308;2022-11-14T12:35:35;13.40;99.90
41481;DHT22;27217;51.220;5.308;2022-11-14T12:38:13;13.10;99.90
41481;DHT22;27217;51.220;5.308;2022-11-14T12:40:53;12.70;99.90
41481;DHT22;27217;51.220;5.308;2022-11-14T12:43:37;12.60;99.90
41481;DHT22;27217;51.220;5.308;2022-11-14T12:46:07;12.50;99.90
41481;DHT22;27217;51.220;5.308;2022-11-14T12:48:41;12.30;99.90
41481;DHT22;27217;51.220;5.308;2022-11-14T12:54:47;11.70;99.90
41481;DHT22;27217;51.220;5.308;2022-11-14T12:57:20;11.70;99.90
41481;DHT22;27217;51.220;5.308;2022-11-14T13:00:09;11.80;99.90
41481;DHT22;27217;51.220;5.308;2022-11-14T13:06:00;11.80;99.90
41481;DHT22;27217;51.220;5.308;2022-11-14T13:11:31;11.60;99.90
41481;DHT22;27217;51.220;5.308;2022-11-14T13:14:18;11.40;99.90
41481;DHT22;27217;51.220;5.308;2022-11-14T13:17:29;11.50;99.90
41481;DHT22;27217;51.220;5.308;2022-11-14T13:20:33;11.40;99.90
41481;DHT22;27217;51.220;5.308;2022-11-14T13:33:48;15.20;99.90
41481;DHT22;27217;51.220;5.308;2022-11-14T13:36:32;16.40;99.90
41481;DHT22;27217;51.220;5.308;2022-11-14T13:41:48;16.50;98.60
41481;DHT22;27217;51.220;5.308;2022-11-14T13:44:40;16.70;98.50
41481;DHT22;27217;51.220;5.308;2022-11-14T13:47:39;17.40;97.20
41481;DHT22;27217;51.220;5.308;2022-11-14T13:50:11;17.70;96.10
41481;DHT22;27217;51.220;5.308;2022-11-14T13:52:46;17.80;95.00
41481;DHT22;27217;51.220;5.308;2022-11-14T13:55:19;18.20;94.60
41481;DHT22;27217;51.220;5.308;2022-11-14T13:57:53;19.10;92.30
41481;DHT22;27217;51.220;5.308;2022-11-14T14:00:23;19.50;90.60
41481;DHT22;27217;51.220;5.308;2022-11-14T14:03:16;19.80;88.60
41481;DHT22;27217;51.220;5.308;2022-11-14T14:10:58;19.20;88.10
41481;DHT22;27217;51.220;5.308;2022-11-14T14:13:46;19.00;88.90
41481;DHT22;27217;51.220;5.308;2022-11-14T14:16:37;18.70;89.80
41481;DHT22;27217;51.220;5.308;2022-11-14T14:22:49;17.50;92.10
41481;DHT22;27217;51.220;5.308;2022-11-14T14:30:13;16.90;94.60
41481;DHT22;27217;51.220;5.308;2022-11-14T14:32:40;16.40;96.00
41481;DHT22;27217;51.220;5.308;2022-11-14T14:35:31;16.00;97.50
41481;DHT22;27217;51.220;5.308;2022-11-14T14:37:57;15.30;99.40
41481;DHT22;27217;51.220;5.308;2022-11-14T14:40:26;15.40;99.90
41481;DHT22;27217;51.220;5.308;2022-11-14T14:42:54;14.60;99.90
41481;DHT22;27217;51.220;5.308;2022-11-14T14:45:23;14.20;99.90
41481;DHT22;27217;51.220;5.308;2022-11-14T14:48:14;13.20;99.90
41481;DHT22;27217;51.220;5.308;2022-11-14T14:50:46;12.60;99.90
41481;DHT22;27217;51.220;5.308;2022-11-14T14:53:29;12.20;99.90
41481;DHT22;27217;51.220;5.308;2022-11-14T14:58:26;11.70;99.90
41481;DHT22;27217;51.220;5.308;2022-11-14T15:01:12;11.40;99.90
41481;DHT22;27217;51.220;5.308;2022-11-14T15:03:44;11.30;99.90
41481;DHT22;27217;51.220;5.308;2022-11-14T15:08:46;10.40;99.90
41481;DHT22;27217;51.220;5.308;2022-11-14T15:11:13;10.30;99.90
41481;DHT22;27217;51.220;5.308;2022-11-14T15:13:40;10.30;99.90
41481;DHT22;27217;51.220;5.308;2022-11-14T15:16:07;10.20;99.90
41481;DHT22;27217;51.220;5.308;2022-11-14T15:18:34;10.10;99.90
41481;DHT22;27217;51.220;5.308;2022-11-14T15:21:22;10.10;99.90
41481;DHT22;27217;51.220;5.308;2022-11-14T15:24:01;9.80;99.90
41481;DHT22;27217;51.220;5.308;2022-11-14T15:26:29;9.90;99.90
41481;DHT22;27217;51.220;5.308;2022-11-14T15:29:17;9.90;99.90
41481;DHT22;27217;51.220;5.308;2022-11-14T15:31:55;9.80;99.90
41481;DHT22;27217;51.220;5.308;2022-11-14T15:34:24;10.00;99.90
41481;DHT22;27217;51.220;5.308;2022-11-14T15:39:36;10.20;99.90
41481;DHT22;27217;51.220;5.308;2022-11-14T15:44:51;10.00;99.90
41481;DHT22;27217;51.220;5.308;2022-11-14T15:47:34;9.80;99.90
41481;DHT22;27217;51.220;5.308;2022-11-14T15:50:05;9.70;99.90
41481;DHT22;27217;51.220;5.308;2022-11-14T15:52:35;9.70;99.90
41481;DHT22;27217;51.220;5.308;2022-11-14T15:55:03;9.60;99.90
41481;DHT22;27217;51.220;5.308;2022-11-14T15:57:34;9.40;99.90
41481;DHT22;27217;51.220;5.308;2022-11-14T16:00:01;9.10;99.90
41481;DHT22;27217;51.220;5.308;2022-11-14T16:02:30;9.10;99.90
41481;DHT22;27217;51.220;5.308;2022-11-14T16:04:59;9.00;99.90
41481;DHT22;27217;51.220;5.308;2022-11-14T16:07:25;9.00;99.90
41481;DHT22;27217;51.220;5.308;2022-11-14T16:09:52;9.00;99.90
41481;DHT22;27217;51.220;5.308;2022-11-14T16:12:19;8.90;99.90
41481;DHT22;27217;51.220;5.308;2022-11-14T16:14:45;8.90;99.90
41481;DHT22;27217;51.220;5.308;2022-11-14T16:17:16;8.70;99.90
41481;DHT22;27217;51.220;5.308;2022-11-14T16:19:42;8.70;99.90
41481;DHT22;27217;51.220;5.308;2022-11-14T16:22:14;8.60;99.90
41481;DHT22;27217;51.220;5.308;2022-11-14T16:24:41;8.60;99.90
41481;DHT22;27217;51.220;5.308;2022-11-14T16:27:07;8.50;99.90
41481;DHT22;27217;51.220;5.308;2022-11-14T16:29:36;8.50;99.90
41481;DHT22;27217;51.220;5.308;2022-11-14T16:32:02;8.40;99.90
41481;DHT22;27217;51.220;5.308;2022-11-14T16:34:28;8.20;99.90
41481;DHT22;27217;51.220;5.308;2022-11-14T16:36:59;8.10;99.90
41481;DHT22;27217;51.220;5.308;2022-11-14T16:39:25;8.00;99.90
41481;DHT22;27217;51.220;5.308;2022-11-14T16:41:51;7.80;99.90
41481;DHT22;27217;51.220;5.308;2022-11-14T16:44:17;7.80;99.90
41481;DHT22;27217;51.220;5.308;2022-11-14T16:46:43;7.80;99.90
41481;DHT22;27217;51.220;5.308;2022-11-14T16:49:12;7.90;99.90
41481;DHT22;27217;51.220;5.308;2022-11-14T16:51:38;7.80;99.90
41481;DHT22;27217;51.220;5.308;2022-11-14T16:54:04;7.80;99.90
41481;DHT22;27217;51.220;5.308;2022-11-14T16:56:30;7.80;99.90
41481;DHT22;27217;51.220;5.308;2022-11-14T16:58:55;7.80;99.90
41481;DHT22;27217;51.220;5.308;2022-11-14T17:01:21;7.70;99.90
41481;DHT22;27217;51.220;5.308;2022-11-14T17:03:47;7.80;99.90
41481;DHT22;27217;51.220;5.308;2022-11-14T17:06:12;7.80;99.90
41481;DHT22;27217;51.220;5.308;2022-11-14T17:08:39;7.70;99.90
41481;DHT22;27217;51.220;5.308;2022-11-14T17:11:08;7.80;99.90
41481;DHT22;27217;51.220;5.308;2022-11-14T17:13:35;7.60;99.90
41481;DHT22;27217;51.220;5.308;2022-11-14T17:16:02;7.40;99.90
41481;DHT22;27217;51.220;5.308;2022-11-14T17:18:27;7.30;99.90
41481;DHT22;27217;51.220;5.308;2022-11-14T17:20:53;7.30;99.90
41481;DHT22;27217;51.220;5.308;2022-11-14T17:23:18;7.10;99.90
41481;DHT22;27217;51.220;5.308;2022-11-14T17:25:44;7.10;99.90
41481;DHT22;27217;51.220;5.308;2022-11-14T17:28:10;7.00;99.90
41481;DHT22;27217;51.220;5.308;2022-11-14T17:30:42;7.10;99.90
41481;DHT22;27217;51.220;5.308;2022-11-14T17:33:08;7.00;99.90
41481;DHT22;27217;51.220;5.308;2022-11-14T17:35:35;7.00;99.90
41481;DHT22;27217;51.220;5.308;2022-11-14T17:38:01;7.00;99.90
41481;DHT22;27217;51.220;5.308;2022-11-14T17:40:27;7.00;99.90
41481;DHT22;27217;51.220;5.308;2022-11-14T17:42:52;7.10;99.90
41481;DHT22;27217;51.220;5.308;2022-11-14T17:45:18;7.20;99.90